createdAt,value
2022-09-25T00:00:45.565Z,36.47
2022-09-25T00:03:13.602Z,36.28
2022-09-25T00:05:41.714Z,36.42
2022-09-25T00:08:09.528Z,36.31
2022-09-25T00:10:41.805Z,36.36
2022-09-25T00:13:08.559Z,36.47
2022-09-25T00:15:35.210Z,36.29
2022-09-25T00:18:02.013Z,36.39
2022-09-25T00:20:28.736Z,36.08
2022-09-25T00:22:55.778Z,36.08
2022-09-25T00:25:22.518Z,36.25
2022-09-25T00:27:54.304Z,35.95
2022-09-25T00:30:21.117Z,35.88
2022-09-25T00:32:47.669Z,35.78
2022-09-25T00:35:14.301Z,35.77
2022-09-25T00:37:40.832Z,35.98
2022-09-25T00:40:08.193Z,35.82
2022-09-25T00:42:36.387Z,35.84
2022-09-25T00:45:24.813Z,35.96
2022-09-25T00:48:14.792Z,35.78
2022-09-25T00:50:55.512Z,35.85
2022-09-25T00:53:27.242Z,35.66
2022-09-25T00:55:56.442Z,35.61
2022-09-25T00:58:25.441Z,35.38
2022-09-25T01:00:53.803Z,35.75
2022-09-25T01:03:20.912Z,35.33
2022-09-25T01:05:49.224Z,35.35
2022-09-25T01:08:19.665Z,35.33
2022-09-25T01:10:46.616Z,35.50
2022-09-25T01:13:15.328Z,35.68
2022-09-25T01:15:52.784Z,35.42
2022-09-25T01:18:55.618Z,35.42
2022-09-25T01:21:27.387Z,35.55
2022-09-25T01:24:15.155Z,35.61
2022-09-25T01:27:06.672Z,35.23
2022-09-25T01:30:01.929Z,35.50
2022-09-25T01:32:42.617Z,35.37
2022-09-25T01:35:37.615Z,35.22
2022-09-25T01:38:28.500Z,35.22
2022-09-25T01:40:58.439Z,35.44
2022-09-25T01:43:41.973Z,35.50
2022-09-25T01:46:22.553Z,35.28
2022-09-25T01:48:55.395Z,35.55
2022-09-25T01:51:27.631Z,35.27
2022-09-25T01:53:58.218Z,35.51
2022-09-25T01:56:32.958Z,35.53
2022-09-25T01:59:24.206Z,35.54
2022-09-25T02:01:52.903Z,35.54
2022-09-25T02:04:35.164Z,35.73
2022-09-25T02:07:04.156Z,35.91
2022-09-25T02:09:37.528Z,35.34
2022-09-25T02:12:14.365Z,35.52
2022-09-25T02:15:02.172Z,35.36
2022-09-25T02:18:00.493Z,35.54
2022-09-25T02:20:33.926Z,35.63
2022-09-25T02:23:23.582Z,35.66
2022-09-25T02:26:02.042Z,36.11
2022-09-25T02:31:02.562Z,36.12
2022-09-25T02:33:29.829Z,36.53
2022-09-25T02:35:56.445Z,36.70
2022-09-25T02:38:23.073Z,36.78
2022-09-25T02:41:21.277Z,36.88
2022-09-25T02:44:24.689Z,36.72
2022-09-25T02:47:13.240Z,37.05
2022-09-25T02:50:05.618Z,36.99
2022-09-25T02:52:41.785Z,37.22
2022-09-25T02:55:51.787Z,37.04
2022-09-25T02:58:37.092Z,37.33
2022-09-25T03:01:50.722Z,37.39
2022-09-25T03:04:19.177Z,37.42
2022-09-25T03:06:46.261Z,37.38
2022-09-25T03:09:15.809Z,37.37
2022-09-25T03:11:43.590Z,37.44
2022-09-25T03:14:10.513Z,37.31
2022-09-25T03:16:51.579Z,37.60
2022-09-25T03:19:21.910Z,37.23
2022-09-25T03:21:49.005Z,37.57
2022-09-25T03:24:16.024Z,37.48
2022-09-25T03:26:43.106Z,37.46
2022-09-25T03:29:12.746Z,37.24
2022-09-25T03:31:39.856Z,37.23
2022-09-25T03:34:06.465Z,37.26
2022-09-25T03:36:34.864Z,37.51
2022-09-25T03:39:01.585Z,37.38
2022-09-25T03:41:31.175Z,37.39
2022-09-25T03:43:58.505Z,37.72
2022-09-25T03:46:30.498Z,37.54
2022-09-25T03:48:57.456Z,37.73
2022-09-25T03:51:26.021Z,37.53
2022-09-25T03:53:53.631Z,37.57
2022-09-25T03:56:24.977Z,37.69
2022-09-25T03:58:54.280Z,37.50
2022-09-25T04:01:21.891Z,37.50
2022-09-25T04:03:49.403Z,37.66
2022-09-25T04:06:18.384Z,37.58
2022-09-25T04:08:46.132Z,37.94
2022-09-25T04:11:12.964Z,37.60
2022-09-25T04:16:08.357Z,37.93
2022-09-25T04:18:35.501Z,37.79
2022-09-25T04:21:06.659Z,37.90
2022-09-25T04:25:50.988Z,38.10
2022-09-25T04:28:17.757Z,38.12
2022-09-25T04:30:44.492Z,38.00
2022-09-25T04:33:30.051Z,38.08
2022-09-25T04:35:56.812Z,38.27
2022-09-25T04:38:23.641Z,38.18
2022-09-25T04:40:50.271Z,38.34
2022-09-25T04:43:16.840Z,37.99
2022-09-25T04:45:43.411Z,37.97
2022-09-25T04:48:09.977Z,38.15
2022-09-25T04:50:36.592Z,38.26
2022-09-25T04:53:03.120Z,38.08
2022-09-25T04:55:30.168Z,38.41
2022-09-25T04:57:59.541Z,38.42
2022-09-25T05:00:28.998Z,38.16
2022-09-25T05:02:55.795Z,38.27
2022-09-25T05:05:27.237Z,38.13
2022-09-25T05:07:54.564Z,38.36
2022-09-25T05:10:22.488Z,38.30
2022-09-25T05:12:54.202Z,38.33
2022-09-25T05:15:21.064Z,38.07
2022-09-25T05:17:47.724Z,38.28
2022-09-25T05:20:14.323Z,38.20
2022-09-25T05:22:40.844Z,38.32
2022-09-25T05:25:07.928Z,38.32
2022-09-25T05:27:34.671Z,38.44
2022-09-25T05:30:01.593Z,38.34
2022-09-25T05:32:28.185Z,38.44
2022-09-25T05:34:54.706Z,38.43
2022-09-25T05:37:21.185Z,38.13
2022-09-25T05:39:47.837Z,38.23
2022-09-25T05:42:15.961Z,38.34
2022-09-25T05:44:42.493Z,38.28
2022-09-25T05:47:09.014Z,38.52
2022-09-25T05:49:35.599Z,38.36
2022-09-25T05:52:02.341Z,38.37
2022-09-25T05:54:28.871Z,38.45
2022-09-25T05:56:55.377Z,38.32
2022-09-25T05:59:21.944Z,38.69
2022-09-25T06:01:48.552Z,38.61
2022-09-25T06:04:15.189Z,38.50
2022-09-25T06:06:41.680Z,38.57
2022-09-25T06:09:08.276Z,38.77
2022-09-25T06:11:35.097Z,38.99
2022-09-25T06:14:02.018Z,38.98
2022-09-25T06:16:28.677Z,38.72
2022-09-25T06:18:56.239Z,38.99
2022-09-25T06:23:36.937Z,38.68
2022-09-25T06:26:05.916Z,38.78
2022-09-25T06:28:33.128Z,39.08
2022-09-25T06:31:01.062Z,38.94
2022-09-25T06:33:27.827Z,38.88
2022-09-25T06:35:54.396Z,38.94
2022-09-25T06:38:21.110Z,39.01
2022-09-25T06:40:47.711Z,38.82
2022-09-25T06:43:15.998Z,38.95
2022-09-25T06:45:43.278Z,38.96
2022-09-25T06:48:15.665Z,39.13
2022-09-25T06:50:55.316Z,39.14
2022-09-25T06:53:23.970Z,38.95
2022-09-25T06:55:51.038Z,39.02
2022-09-25T06:58:20.708Z,38.97
2022-09-25T07:00:52.096Z,39.09
2022-09-25T07:03:37.686Z,39.40
2022-09-25T07:06:06.543Z,39.33
2022-09-25T07:08:33.336Z,39.42
2022-09-25T07:11:01.534Z,39.44
2022-09-25T07:13:31.481Z,39.22
2022-09-25T07:16:00.141Z,39.13
2022-09-25T07:18:28.537Z,39.18
2022-09-25T07:21:11.451Z,39.59
2022-09-25T07:23:39.515Z,39.45
2022-09-25T07:26:10.766Z,39.66
2022-09-25T07:28:39.164Z,39.62
2022-09-25T07:31:19.282Z,39.46
2022-09-25T07:33:46.893Z,39.80
2022-09-25T07:36:14.841Z,39.48
2022-09-25T07:38:42.033Z,39.73
2022-09-25T07:41:13.512Z,39.52
2022-09-25T07:43:42.181Z,39.69
2022-09-25T07:46:08.770Z,39.52
2022-09-25T07:48:35.700Z,39.80
2022-09-25T07:51:04.780Z,39.84
2022-09-25T07:53:31.851Z,39.75
2022-09-25T07:56:06.073Z,39.97
2022-09-25T07:58:35.418Z,40.01
2022-09-25T08:01:04.947Z,39.92
2022-09-25T08:03:31.623Z,39.71
2022-09-25T08:06:07.216Z,40.01
2022-09-25T08:08:34.474Z,40.04
2022-09-25T08:11:02.853Z,40.17
2022-09-25T08:13:32.384Z,40.13
2022-09-25T08:15:59.513Z,39.77
2022-09-25T08:18:26.136Z,39.88
2022-09-25T08:20:52.689Z,39.96
2022-09-25T08:23:20.088Z,39.94
2022-09-25T08:25:49.679Z,39.86
2022-09-25T08:28:16.390Z,39.94
2022-09-25T08:32:58.945Z,40.34
2022-09-25T08:35:27.998Z,40.29
2022-09-25T08:37:55.032Z,40.17
2022-09-25T08:40:30.990Z,40.02
2022-09-25T08:42:59.031Z,40.34
2022-09-25T08:45:58.859Z,40.22
2022-09-25T08:48:51.751Z,40.31
2022-09-25T08:51:18.746Z,40.64
2022-09-25T08:53:46.090Z,40.79
2022-09-25T08:56:20.021Z,40.57
2022-09-25T08:59:23.687Z,40.92
2022-09-25T09:01:56.026Z,40.88
2022-09-25T09:04:32.054Z,40.91
2022-09-25T09:07:28.118Z,41.27
2022-09-25T09:10:11.030Z,41.19
2022-09-25T09:12:44.841Z,41.13
2022-09-25T09:15:27.631Z,41.19
2022-09-25T09:17:57.989Z,41.37
2022-09-25T09:20:33.227Z,41.45
2022-09-25T09:23:00.886Z,41.69
2022-09-25T09:28:14.957Z,41.87
2022-09-25T09:31:01.093Z,41.89
2022-09-25T09:33:34.370Z,42.32
2022-09-25T09:36:26.382Z,42.20
2022-09-25T09:39:15.969Z,42.36
2022-09-25T09:41:50.164Z,42.44
2022-09-25T09:44:51.334Z,42.44
2022-09-25T09:47:45.454Z,42.75
2022-09-25T09:50:43.231Z,42.62
2022-09-25T09:53:24.097Z,43.01
2022-09-25T09:55:54.287Z,43.13
2022-09-25T09:58:33.658Z,43.10
2022-09-25T10:01:15.984Z,42.91
2022-09-25T10:03:49.862Z,43.28
2022-09-25T10:06:22.427Z,43.35
2022-09-25T10:08:49.467Z,43.40
2022-09-25T10:11:18.348Z,43.51
2022-09-25T10:13:46.169Z,43.34
2022-09-25T10:16:16.416Z,43.70
2022-09-25T10:19:07.262Z,43.53
2022-09-25T10:21:42.274Z,43.51
2022-09-25T10:24:08.956Z,43.37
2022-09-25T10:26:39.855Z,43.27
2022-09-25T10:29:21.665Z,43.16
2022-09-25T10:31:56.839Z,43.48
2022-09-25T10:34:24.275Z,43.53
2022-09-25T10:36:53.125Z,43.70
2022-09-25T10:39:46.675Z,43.56
2022-09-25T10:42:37.628Z,43.34
2022-09-25T10:45:29.833Z,43.40
2022-09-25T10:48:17.694Z,43.34
2022-09-25T10:50:44.508Z,43.09
2022-09-25T10:55:31.209Z,43.35
2022-09-25T10:58:06.737Z,43.14
2022-09-25T11:00:42.386Z,43.04
2022-09-25T11:03:21.580Z,43.07
2022-09-25T11:05:55.135Z,43.06
2022-09-25T11:08:28.956Z,43.19
2022-09-25T11:11:00.680Z,43.01
2022-09-25T11:13:36.923Z,43.26
2022-09-25T11:16:10.290Z,43.07
2022-09-25T11:18:48.748Z,43.20
2022-09-25T11:21:23.489Z,42.97
2022-09-25T11:24:04.209Z,43.19
2022-09-25T11:26:36.028Z,42.84
2022-09-25T11:29:58.510Z,43.16
2022-09-25T11:32:40.027Z,43.28
2022-09-25T11:35:39.404Z,43.25
2022-09-25T11:38:45.209Z,43.18
2022-09-25T11:41:35.189Z,43.12
2022-09-25T11:44:19.984Z,43.01
2022-09-25T11:46:50.419Z,42.94
2022-09-25T11:49:17.143Z,43.10
2022-09-25T11:52:16.491Z,43.07
2022-09-25T11:55:18.497Z,42.81
2022-09-25T11:57:57.084Z,42.88
2022-09-25T12:00:34.216Z,43.16
2022-09-25T12:03:43.044Z,43.33
2022-09-25T12:06:19.966Z,42.96
2022-09-25T12:08:53.421Z,43.14
2022-09-25T12:11:51.096Z,43.21
2022-09-25T12:14:36.111Z,43.40
2022-09-25T12:17:50.998Z,43.11
2022-09-25T12:20:32.763Z,43.15
2022-09-25T12:23:31.433Z,43.10
2022-09-25T12:26:12.452Z,43.21
2022-09-25T12:29:10.464Z,43.22
2022-09-25T12:32:14.897Z,43.06
2022-09-25T12:34:44.396Z,43.11
2022-09-25T12:37:28.767Z,43.20
2022-09-25T12:40:11.687Z,43.05
2022-09-25T12:42:59.097Z,43.23
2022-09-25T12:45:33.320Z,42.98
2022-09-25T12:48:23.588Z,43.04
2022-09-25T12:51:01.485Z,43.20
2022-09-25T12:53:39.600Z,42.99
2022-09-25T12:56:32.112Z,43.00
2022-09-25T12:58:59.220Z,43.08
2022-09-25T13:01:37.803Z,42.92
2022-09-25T13:04:23.549Z,43.05
2022-09-25T13:07:08.118Z,42.99
2022-09-25T13:09:45.477Z,43.25
2022-09-25T13:12:26.160Z,43.41
2022-09-25T13:14:57.641Z,43.61
2022-09-25T13:17:24.366Z,43.92
2022-09-25T13:19:51.518Z,43.85
2022-09-25T13:22:20.767Z,44.30
2022-09-25T13:25:02.965Z,45.40
2022-09-25T13:27:39.011Z,45.81
2022-09-25T13:30:07.073Z,45.74
2022-09-25T13:32:39.093Z,45.73
2022-09-25T13:35:19.999Z,45.81
2022-09-25T13:37:48.302Z,45.89
2022-09-25T13:40:39.276Z,45.63
2022-09-25T13:43:21.265Z,45.72
2022-09-25T13:45:49.201Z,45.16
2022-09-25T13:48:36.142Z,44.73
2022-09-25T13:51:18.289Z,44.49
2022-09-25T13:53:51.028Z,44.15
2022-09-25T13:56:23.568Z,44.21
2022-09-25T13:59:16.010Z,43.99
2022-09-25T14:01:51.265Z,43.84
2022-09-25T14:04:31.769Z,43.64
2022-09-25T14:07:07.497Z,43.81
2022-09-25T14:09:34.325Z,43.72
2022-09-25T14:14:28.225Z,43.59
2022-09-25T14:17:01.006Z,43.64
2022-09-25T14:19:36.440Z,43.99
2022-09-25T14:22:06.327Z,43.76
2022-09-25T14:24:33.033Z,44.00
2022-09-25T14:27:03.918Z,43.40
2022-09-25T14:29:40.778Z,43.87
2022-09-25T14:32:43.212Z,43.90
2022-09-25T14:35:05.432Z,44.05
2022-09-25T14:38:06.733Z,44.11
2022-09-25T14:40:40.162Z,44.47
2022-09-25T14:43:13.267Z,44.40
2022-09-25T14:45:54.825Z,44.41
2022-09-25T14:48:46.771Z,44.24
2022-09-25T14:51:24.655Z,44.21
2022-09-25T14:54:00.800Z,44.66
2022-09-25T14:56:34.073Z,44.53
2022-09-25T14:59:11.647Z,44.68
2022-09-25T15:01:47.734Z,44.52
2022-09-25T15:04:29.652Z,44.51
2022-09-25T15:07:08.574Z,44.51
2022-09-25T15:09:38.624Z,44.45
2022-09-25T15:12:31.588Z,44.68
2022-09-25T15:15:03.971Z,44.75
2022-09-25T15:17:32.766Z,44.70
2022-09-25T15:20:03.083Z,44.65
2022-09-25T15:22:38.593Z,44.53
2022-09-25T15:25:08.263Z,44.66
2022-09-25T15:27:42.462Z,44.61
2022-09-25T15:30:15.790Z,44.77
2022-09-25T15:32:47.413Z,44.77
2022-09-25T15:35:18.349Z,44.85
2022-09-25T15:37:46.735Z,44.83
2022-09-25T15:40:27.902Z,44.63
2022-09-25T15:42:55.306Z,44.83
2022-09-25T15:45:45.227Z,44.89
2022-09-25T15:48:31.204Z,44.77
2022-09-25T15:51:03.749Z,44.77
2022-09-25T15:53:35.932Z,44.43
2022-09-25T15:56:27.469Z,44.51
2022-09-25T15:59:13.822Z,44.67
2022-09-25T16:02:05.319Z,44.53
2022-09-25T16:04:47.155Z,44.52
2022-09-25T16:07:29.304Z,44.57
2022-09-25T16:10:01.332Z,44.52
2022-09-25T16:12:32.537Z,44.59
2022-09-25T16:15:24.453Z,44.55
2022-09-25T16:17:51.093Z,44.44
2022-09-25T16:20:23.242Z,44.48
2022-09-25T16:22:57.025Z,44.44
2022-09-25T16:25:32.075Z,44.33
2022-09-25T16:28:15.947Z,44.30
2022-09-25T16:30:58.857Z,44.41
2022-09-25T16:33:28.776Z,44.31
2022-09-25T16:36:12.876Z,44.30
2022-09-25T16:38:42.743Z,44.47
2022-09-25T16:41:12.046Z,44.31
2022-09-25T16:43:39.669Z,44.22
2022-09-25T16:46:22.092Z,44.39
2022-09-25T16:49:01.862Z,44.30
2022-09-25T16:51:32.905Z,44.47
2022-09-25T16:54:03.624Z,44.38
2022-09-25T16:56:31.914Z,44.51
2022-09-25T16:58:59.251Z,44.38
2022-09-25T17:03:52.497Z,44.11
2022-09-25T17:06:20.555Z,44.17
2022-09-25T17:08:49.213Z,44.25
2022-09-25T17:11:18.119Z,44.38
2022-09-25T17:13:45.736Z,44.16
2022-09-25T17:16:12.499Z,44.11
2022-09-25T17:18:39.537Z,44.30
2022-09-25T17:21:13.454Z,44.22
2022-09-25T17:23:40.044Z,44.06
2022-09-25T17:26:18.452Z,44.39
2022-09-25T17:28:45.132Z,44.38
2022-09-25T17:31:14.808Z,44.40
2022-09-25T17:33:41.544Z,44.13
2022-09-25T17:36:11.351Z,44.18
2022-09-25T17:38:38.191Z,44.14
2022-09-25T17:41:32.633Z,44.10
2022-09-25T17:43:59.734Z,44.05
2022-09-25T17:48:40.894Z,44.00
2022-09-25T17:53:22.009Z,44.09
2022-09-25T17:55:53.374Z,44.15
2022-09-25T17:58:22.254Z,44.32
2022-09-25T18:00:51.285Z,44.09
2022-09-25T18:03:18.780Z,44.08
2022-09-25T18:05:45.446Z,44.08
2022-09-25T18:08:12.447Z,44.04
2022-09-25T18:10:39.309Z,43.88
2022-09-25T18:13:07.762Z,44.12
2022-09-25T18:15:36.838Z,43.96
2022-09-25T18:18:04.001Z,43.92
2022-09-25T18:20:48.897Z,43.84
2022-09-25T18:23:15.565Z,43.85
2022-09-25T18:25:42.077Z,43.93
2022-09-25T18:28:09.149Z,43.77
2022-09-25T18:30:38.028Z,43.79
2022-09-25T18:33:04.995Z,43.77
2022-09-25T18:35:31.613Z,43.91
2022-09-25T18:37:59.719Z,43.87
2022-09-25T18:42:47.052Z,44.04
2022-09-25T18:45:14.477Z,43.86
2022-09-25T18:47:42.820Z,43.94
2022-09-25T18:50:10.610Z,43.83
2022-09-25T18:52:40.248Z,43.61
2022-09-25T18:55:07.319Z,43.58
2022-09-25T18:57:37.400Z,43.75
2022-09-25T19:00:07.364Z,43.51
2022-09-25T19:02:39.054Z,43.80
2022-09-25T19:05:06.836Z,43.58
2022-09-25T19:07:33.575Z,43.52
2022-09-25T19:10:07.677Z,43.81
2022-09-25T19:12:34.347Z,43.74
2022-09-25T19:15:01.585Z,43.63
2022-09-25T19:17:28.145Z,43.42
2022-09-25T19:19:54.634Z,43.69
2022-09-25T19:22:23.819Z,43.46
2022-09-25T19:24:52.627Z,43.57
2022-09-25T19:27:21.950Z,43.60
2022-09-25T19:29:48.491Z,43.71
2022-09-25T19:32:17.072Z,43.63
2022-09-25T19:34:43.878Z,43.60
2022-09-25T19:37:10.967Z,43.73
2022-09-25T19:39:57.424Z,43.57
2022-09-25T19:42:26.421Z,43.78
2022-09-25T19:44:54.657Z,43.64
2022-09-25T19:47:23.931Z,43.57
2022-09-25T19:49:50.523Z,43.74
2022-09-25T19:52:17.241Z,43.73
2022-09-25T19:54:43.786Z,43.73
2022-09-25T19:57:10.427Z,43.68
2022-09-25T19:59:36.961Z,43.55
2022-09-25T20:04:35.749Z,43.71
2022-09-25T20:07:02.383Z,43.69
2022-09-25T20:09:28.885Z,43.48
2022-09-25T20:11:57.675Z,43.75
2022-09-25T20:14:27.107Z,43.47
2022-09-25T20:16:54.974Z,43.49
2022-09-25T20:19:21.793Z,43.59
2022-09-25T20:21:48.944Z,43.43
2022-09-25T20:24:15.899Z,43.57
2022-09-25T20:26:42.525Z,43.63
2022-09-25T20:29:14.723Z,43.49
2022-09-25T20:31:44.262Z,43.86
2022-09-25T20:34:17.215Z,43.61
2022-09-25T20:36:44.161Z,43.33
2022-09-25T20:39:11.004Z,43.49
2022-09-25T20:41:38.248Z,43.38
2022-09-25T20:44:05.379Z,43.51
2022-09-25T20:46:33.173Z,43.35
2022-09-25T20:49:00.550Z,43.42
2022-09-25T20:51:29.809Z,43.57
2022-09-25T20:54:07.433Z,43.38
2022-09-25T20:56:36.364Z,43.52
2022-09-25T20:59:04.337Z,43.37
2022-09-25T21:01:34.689Z,43.45
2022-09-25T21:04:03.527Z,43.57
2022-09-25T21:06:32.727Z,43.52
2022-09-25T21:09:01.143Z,43.38
2022-09-25T21:11:30.114Z,43.46
2022-09-25T21:13:59.481Z,43.53
2022-09-25T21:16:28.090Z,43.46
2022-09-25T21:19:04.562Z,43.22
2022-09-25T21:21:33.129Z,43.41
2022-09-25T21:24:02.450Z,43.15
2022-09-25T21:26:30.717Z,43.22
2022-09-25T21:28:59.252Z,43.15
2022-09-25T21:31:34.639Z,43.32
2022-09-25T21:34:01.868Z,43.07
2022-09-25T21:36:29.172Z,43.13
2022-09-25T21:38:56.117Z,43.20
2022-09-25T21:41:25.223Z,43.12
2022-09-25T21:43:59.711Z,43.08
2022-09-25T21:46:27.342Z,43.20
2022-09-25T21:48:59.263Z,43.16
2022-09-25T21:51:31.964Z,42.87
2022-09-25T21:54:00.908Z,43.12
2022-09-25T21:56:30.679Z,42.85
2022-09-25T22:01:27.820Z,42.73
2022-09-25T22:03:56.800Z,42.77
2022-09-25T22:06:29.081Z,42.47
2022-09-25T22:08:58.554Z,42.66
2022-09-25T22:11:26.290Z,43.00
2022-09-25T22:13:53.548Z,43.22
2022-09-25T22:16:29.930Z,43.09
2022-09-25T22:19:27.324Z,43.12
2022-09-25T22:21:58.837Z,43.18
2022-09-25T22:24:26.392Z,43.15
2022-09-25T22:26:55.398Z,43.35
2022-09-25T22:29:22.948Z,43.48
2022-09-25T22:31:50.458Z,43.76
2022-09-25T22:34:20.995Z,43.95
2022-09-25T22:36:48.701Z,44.10
2022-09-25T22:39:18.100Z,43.91
2022-09-25T22:41:45.795Z,43.65
2022-09-25T22:44:12.403Z,43.56
2022-09-25T22:46:39.301Z,43.55
2022-09-25T22:49:06.252Z,43.48
2022-09-25T22:51:32.965Z,43.25
2022-09-25T22:53:59.469Z,43.63
2022-09-25T22:56:36.849Z,43.54
2022-09-25T23:01:26.194Z,43.38
2022-09-25T23:03:58.381Z,43.43
2022-09-25T23:06:25.476Z,43.49
2022-09-25T23:08:57.792Z,43.30
2022-09-25T23:11:25.497Z,43.43
2022-09-25T23:14:06.853Z,43.40
2022-09-25T23:16:34.701Z,43.23
2022-09-25T23:19:02.098Z,43.54
2022-09-25T23:21:30.316Z,43.35
2022-09-25T23:24:02.486Z,43.35
2022-09-25T23:26:29.793Z,43.18
2022-09-25T23:28:58.590Z,43.29
2022-09-25T23:31:25.898Z,43.21
2022-09-25T23:33:52.685Z,43.25
2022-09-25T23:36:21.606Z,43.09
2022-09-25T23:38:49.780Z,43.26
2022-09-25T23:41:17.468Z,43.35
2022-09-25T23:43:45.228Z,43.28
2022-09-25T23:46:13.099Z,43.22
2022-09-25T23:48:39.776Z,43.14
2022-09-25T23:51:06.861Z,42.93
2022-09-25T23:53:34.059Z,43.10
2022-09-25T23:56:15.852Z,43.22
2022-09-25T23:58:43.544Z,43.16
